createdAt,value
2023-05-06T00:01:26.318Z,99901.34
2023-05-06T00:06:29.429Z,99930.03
2023-05-06T00:11:31.870Z,99930.59
2023-05-06T00:16:34.278Z,99964.25
2023-05-06T00:21:36.645Z,99862.44
2023-05-06T00:26:38.957Z,99976.09
2023-05-06T00:31:41.543Z,99895.59
2023-05-06T00:36:43.971Z,99973.25
2023-05-06T00:41:46.551Z,99928.59
2023-05-06T00:46:48.950Z,99966.38
2023-05-06T00:51:52.552Z,99980.22
2023-05-06T00:56:55.151Z,99988.50
2023-05-06T01:01:58.485Z,99928.16
2023-05-06T01:07:29.515Z,99992.75
2023-05-06T01:12:42.975Z,99993.22
2023-05-06T01:17:50.863Z,99956.91
2023-05-06T01:22:54.141Z,99917.75
2023-05-06T01:27:56.502Z,99948.72
2023-05-06T01:33:05.384Z,99963.56
2023-05-06T01:38:08.338Z,99997.50
2023-05-06T01:43:13.678Z,99867.13
2023-05-06T01:48:18.239Z,99926.59
2023-05-06T01:53:20.664Z,99896.72
2023-05-06T01:58:23.010Z,99923.78
2023-05-06T02:03:25.469Z,100014.38
2023-05-06T02:08:27.879Z,99896.31
2023-05-06T02:13:30.379Z,99896.97
2023-05-06T02:18:33.261Z,99938.72
2023-05-06T02:23:35.690Z,100000.19
2023-05-06T02:28:38.135Z,99953.00
2023-05-06T02:33:40.447Z,100032.63
2023-05-06T02:38:42.811Z,99938.25
2023-05-06T02:43:45.208Z,99908.00
2023-05-06T02:48:47.489Z,99876.22
2023-05-06T02:53:49.828Z,100024.69
2023-05-06T02:58:53.519Z,100052.13
2023-05-06T03:03:55.849Z,99989.53
2023-05-06T03:08:58.263Z,100053.97
2023-05-06T03:14:00.740Z,99946.34
2023-05-06T03:19:04.170Z,100012.47
2023-05-06T03:24:07.687Z,100060.22
2023-05-06T03:29:11.681Z,100057.72
2023-05-06T03:34:14.602Z,100060.44
2023-05-06T03:39:17.118Z,99938.41
2023-05-06T03:44:21.133Z,100067.00
2023-05-06T03:49:23.909Z,100041.63
2023-05-06T03:54:26.263Z,100039.91
2023-05-06T03:59:29.203Z,100022.41
2023-05-06T04:04:33.332Z,100047.03
2023-05-06T04:09:35.929Z,99998.66
2023-05-06T04:14:42.273Z,100086.25
2023-05-06T04:19:45.300Z,100028.41
2023-05-06T04:24:47.885Z,100085.06
2023-05-06T04:29:52.220Z,100000.66
2023-05-06T04:34:54.848Z,100051.13
2023-05-06T04:39:57.588Z,100081.19
2023-05-06T04:45:01.125Z,100050.28
2023-05-06T04:50:07.774Z,100097.81
2023-05-06T04:55:11.842Z,100067.22
2023-05-06T05:00:20.973Z,100074.25
2023-05-06T05:05:24.601Z,100039.50
2023-05-06T05:10:28.572Z,100080.25
2023-05-06T05:15:31.046Z,100076.88
2023-05-06T05:20:33.770Z,100067.78
2023-05-06T05:25:38.790Z,100037.22
2023-05-06T05:30:41.528Z,100101.84
2023-05-06T05:35:44.972Z,99967.09
2023-05-06T05:40:48.621Z,100083.38
2023-05-06T05:45:51.260Z,100076.50
2023-05-06T05:50:54.872Z,100107.69
2023-05-06T05:55:57.289Z,100043.78
2023-05-06T06:01:00.125Z,100073.16
2023-05-06T06:06:02.759Z,99983.22
2023-05-06T06:11:07.125Z,100106.75
2023-05-06T06:16:13.851Z,99993.75
2023-05-06T06:21:16.356Z,100018.38
2023-05-06T06:26:19.223Z,100011.72
2023-05-06T06:31:21.933Z,99956.56
2023-05-06T06:36:24.547Z,100091.69
2023-05-06T06:41:30.150Z,100057.44
2023-05-06T06:46:32.633Z,100088.78
2023-05-06T06:51:35.072Z,100081.38
2023-05-06T06:56:37.555Z,100109.06
2023-05-06T07:01:41.608Z,100097.00
2023-05-06T07:06:44.022Z,100137.75
2023-05-06T07:11:46.494Z,100038.50
2023-05-06T07:16:51.362Z,100054.41
2023-05-06T07:21:54.289Z,100111.41
2023-05-06T07:27:01.734Z,100158.13
2023-05-06T07:32:04.480Z,100089.16
2023-05-06T07:37:08.372Z,100040.16
2023-05-06T07:42:13.360Z,100056.88
2023-05-06T07:47:26.807Z,100157.19
2023-05-06T07:52:29.498Z,100106.88
2023-05-06T07:57:31.839Z,100050.09
2023-05-06T08:02:34.362Z,100130.78
2023-05-06T08:07:37.281Z,100150.16
2023-05-06T08:12:39.700Z,100050.47
2023-05-06T08:17:42.204Z,100086.06
2023-05-06T08:22:44.531Z,100117.41
2023-05-06T08:27:47.244Z,100065.69
2023-05-06T08:32:50.952Z,100113.72
2023-05-06T08:37:53.357Z,100067.88
2023-05-06T08:42:57.777Z,100129.50
2023-05-06T08:48:00.780Z,100130.13
2023-05-06T08:53:03.482Z,100159.91
2023-05-06T08:58:07.632Z,100159.63
2023-05-06T09:03:12.879Z,100070.50
2023-05-06T09:08:18.214Z,100129.31
2023-05-06T09:13:20.861Z,100077.34
2023-05-06T09:18:23.640Z,100155.59
2023-05-06T09:23:26.430Z,100101.06
2023-05-06T09:28:33.308Z,100163.56
2023-05-06T09:33:37.660Z,100136.06
2023-05-06T09:38:41.726Z,100152.28
2023-05-06T09:43:48.939Z,100055.38
2023-05-06T09:48:52.948Z,100158.75
2023-05-06T09:53:57.079Z,100125.97
2023-05-06T09:59:01.682Z,100157.59
2023-05-06T10:04:10.874Z,100169.69
2023-05-06T10:09:13.928Z,100087.22
2023-05-06T10:14:16.469Z,100136.75
2023-05-06T10:19:22.997Z,100122.97
2023-05-06T10:24:32.173Z,100148.34
2023-05-06T10:29:36.575Z,100049.66
2023-05-06T10:34:45.301Z,100094.06
2023-05-06T10:39:48.071Z,100130.91
2023-05-06T10:45:01.455Z,100158.97
2023-05-06T10:50:33.049Z,100153.81
2023-05-06T10:55:38.463Z,100097.16
2023-05-06T11:00:54.196Z,100157.97
2023-05-06T11:05:56.683Z,100078.53
2023-05-06T11:10:59.199Z,100157.66
2023-05-06T11:16:03.000Z,100154.56
2023-05-06T11:21:08.725Z,100154.03
2023-05-06T11:26:12.410Z,100154.94
2023-05-06T11:31:15.559Z,100092.00
2023-05-06T11:36:19.143Z,100074.19
2023-05-06T11:41:23.153Z,100085.31
2023-05-06T11:46:32.082Z,100113.13
2023-05-06T11:51:34.507Z,100129.44
2023-05-06T11:56:48.029Z,100133.63
2023-05-06T12:07:11.380Z,100047.19
2023-05-06T12:12:18.059Z,100118.44
2023-05-06T12:17:21.989Z,100125.38
2023-05-06T12:22:27.694Z,100116.75
2023-05-06T12:27:33.532Z,100166.09
2023-05-06T12:32:36.020Z,100117.28
2023-05-06T12:37:38.358Z,100067.19
2023-05-06T12:42:40.793Z,100162.56
2023-05-06T12:47:56.443Z,100172.50
2023-05-06T12:52:59.063Z,100025.31
2023-05-06T12:58:01.539Z,100136.91
2023-05-06T13:03:04.125Z,100161.50
2023-05-06T13:08:08.600Z,100130.91
2023-05-06T13:13:11.119Z,100142.56
2023-05-06T13:18:13.595Z,100062.38
2023-05-06T13:23:15.928Z,100189.66
2023-05-06T13:28:18.374Z,100193.03
2023-05-06T13:33:20.771Z,100133.78
2023-05-06T13:38:23.270Z,100143.44
2023-05-06T13:43:25.633Z,100195.09
2023-05-06T13:48:27.937Z,100192.38
2023-05-06T13:53:30.406Z,100044.28
2023-05-06T13:58:32.873Z,100158.78
2023-05-06T14:03:35.417Z,100168.44
2023-05-06T14:08:37.880Z,100079.41
2023-05-06T14:13:40.966Z,100145.59
2023-05-06T14:18:44.349Z,100166.66
2023-05-06T14:23:46.657Z,100149.88
2023-05-06T14:28:49.055Z,100137.34
2023-05-06T14:33:51.558Z,100144.38
2023-05-06T14:38:53.820Z,100205.13
2023-05-06T14:43:57.360Z,100136.03
2023-05-06T14:48:59.673Z,100170.53
2023-05-06T14:54:02.154Z,100177.56
2023-05-06T14:59:04.552Z,100199.41
2023-05-06T15:04:09.884Z,100094.50
2023-05-06T15:09:12.165Z,100157.00
2023-05-06T15:14:15.913Z,100137.34
2023-05-06T15:19:18.283Z,100219.00
2023-05-06T15:24:20.962Z,100173.00
2023-05-06T15:29:23.428Z,100130.03
2023-05-06T15:34:25.877Z,100135.19
2023-05-06T15:39:28.762Z,100164.09
2023-05-06T15:44:32.087Z,100191.44
2023-05-06T15:49:51.443Z,100170.13
2023-05-06T15:54:59.466Z,100144.41
2023-05-06T16:00:02.626Z,100205.50
2023-05-06T16:05:10.026Z,100176.09
2023-05-06T16:10:12.693Z,100221.97
2023-05-06T16:15:15.221Z,100155.75
2023-05-06T16:20:17.611Z,100159.94
2023-05-06T16:25:20.136Z,100143.78
2023-05-06T16:30:23.630Z,100239.69
2023-05-06T16:35:26.196Z,100174.91
2023-05-06T16:40:29.073Z,100236.56
2023-05-06T16:45:31.753Z,100228.97
2023-05-06T16:50:35.582Z,100224.41
2023-05-06T16:55:38.159Z,100176.47
2023-05-06T17:00:40.763Z,100274.53
2023-05-06T17:05:43.218Z,100246.22
2023-05-06T17:10:46.438Z,100273.28
2023-05-06T17:15:48.849Z,100213.72
2023-05-06T17:20:56.385Z,100194.13
2023-05-06T17:25:59.844Z,100259.88
2023-05-06T17:31:02.310Z,100199.53
2023-05-06T17:36:05.355Z,100302.00
2023-05-06T17:41:07.969Z,100302.44
2023-05-06T17:46:10.620Z,100278.19
2023-05-06T17:51:13.029Z,100308.69
2023-05-06T17:56:15.432Z,100261.88
2023-05-06T18:01:17.864Z,100214.91
2023-05-06T18:06:20.296Z,100316.91
2023-05-06T18:11:22.784Z,100320.91
2023-05-06T18:16:25.466Z,100322.25
2023-05-06T18:21:28.248Z,100242.44
2023-05-06T18:26:43.243Z,100290.19
2023-05-06T18:31:47.033Z,100311.03
2023-05-06T18:36:50.114Z,100281.50
2023-05-06T18:41:52.756Z,100207.47
2023-05-06T18:46:55.156Z,100324.41
2023-05-06T18:51:58.110Z,100296.03
2023-05-06T18:57:01.415Z,100271.88
2023-05-06T19:02:05.242Z,100338.75
2023-05-06T19:07:08.371Z,100317.16
2023-05-06T19:12:10.840Z,100335.78
2023-05-06T19:17:15.119Z,100306.28
2023-05-06T19:22:17.673Z,100267.97
2023-05-06T19:27:21.620Z,100340.84
2023-05-06T19:32:24.074Z,100160.94
2023-05-06T19:37:30.618Z,100321.63
2023-05-06T19:42:34.304Z,100351.28
2023-05-06T19:47:36.806Z,100240.75
2023-05-06T19:52:39.200Z,100297.00
2023-05-06T19:57:44.308Z,100258.63
2023-05-06T20:02:46.921Z,100306.94
2023-05-06T20:07:49.409Z,100347.03
2023-05-06T20:12:51.783Z,100332.63
2023-05-06T20:17:54.270Z,100300.09
2023-05-06T20:22:56.778Z,100323.06
2023-05-06T20:27:59.893Z,100296.19
2023-05-06T20:33:02.330Z,100274.50
2023-05-06T20:38:04.834Z,100296.75
2023-05-06T20:43:13.138Z,100298.66
2023-05-06T20:48:15.757Z,100263.97
2023-05-06T20:53:18.185Z,100316.78
2023-05-06T20:58:20.614Z,100278.53
2023-05-06T21:03:24.490Z,100195.59
2023-05-06T21:08:26.929Z,100323.41
2023-05-06T21:13:29.220Z,100310.28
2023-05-06T21:18:31.792Z,100369.13
2023-05-06T21:23:37.181Z,100288.28
2023-05-06T21:28:39.680Z,100282.50
2023-05-06T21:33:42.075Z,100347.81
2023-05-06T21:38:44.384Z,100335.44
2023-05-06T21:43:46.759Z,100269.72
2023-05-06T21:48:49.199Z,100318.75
2023-05-06T21:53:53.415Z,100362.16
2023-05-06T21:58:56.253Z,100342.38
2023-05-06T22:03:58.729Z,100346.50
2023-05-06T22:09:01.223Z,100344.50
2023-05-06T22:14:03.952Z,100290.38
2023-05-06T22:19:06.752Z,100362.84
2023-05-06T22:24:09.408Z,100347.41
2023-05-06T22:29:11.886Z,100340.88
2023-05-06T22:34:14.173Z,100352.09
2023-05-06T22:39:16.646Z,100359.47
2023-05-06T22:44:18.913Z,100336.06
2023-05-06T22:49:21.346Z,100405.28
2023-05-06T22:54:24.328Z,100355.19
2023-05-06T22:59:26.736Z,100365.25
2023-05-06T23:04:29.114Z,100328.28
2023-05-06T23:09:31.455Z,100405.09
2023-05-06T23:14:33.704Z,100406.53
2023-05-06T23:19:36.735Z,100308.03
2023-05-06T23:24:39.042Z,100335.22
2023-05-06T23:29:41.591Z,100249.81
2023-05-06T23:34:44.053Z,100378.78
2023-05-06T23:39:47.955Z,100406.06
2023-05-06T23:44:50.276Z,100404.03
2023-05-06T23:49:52.854Z,100375.53
2023-05-06T23:54:55.168Z,100385.63
2023-05-06T23:59:57.663Z,100408.59
